Terminal Aerodrome Forecast
Issued by NWS Cleveland, OH

Home | Current Version | Previous Version | Graphics & Text | Print | Product List | Glossary On
Versions: 1 2 3 4 5 6 7 8 9 10 11 12 13 14
000
FTUS41 KCLE 162323
TAFYNG
TAF
KYNG 162323Z 1700/1724 04003KT P6SM SCT040
     FM170900 00000KT 5SM BR SKC
      TEMPO 1710/1713 1SM BR SCT005
     FM171300 18004KT P6SM SCT040=

USA.gov is the U.S. government's official web portal to all federal, state and local government web resources and services.